sensor_id;sensor_type;location;lat;lon;timestamp;temperature;humidity
9527;DHT22;4802;51.494;6.770;2022-12-07T00:34:49;7.00;1.00
9527;DHT22;4802;51.494;6.770;2022-12-07T00:37:50;6.40;99.90
9527;DHT22;4802;51.494;6.770;2022-12-07T00:40:55;6.10;99.90
9527;DHT22;4802;51.494;6.770;2022-12-07T00:44:02;6.10;99.90
9527;DHT22;4802;51.494;6.770;2022-12-07T00:47:20;6.10;99.90
9527;DHT22;4802;51.494;6.770;2022-12-07T00:50:39;6.10;99.90
9527;DHT22;4802;51.494;6.770;2022-12-07T00:53:30;6.20;99.90
9527;DHT22;4802;51.494;6.770;2022-12-07T00:56:32;6.10;99.90
9527;DHT22;4802;51.494;6.770;2022-12-07T00:59:20;6.20;99.90
9527;DHT22;4802;51.494;6.770;2022-12-07T01:01:55;4.70;99.90
9527;DHT22;4802;51.494;6.770;2022-12-07T01:04:57;6.00;99.90
9527;DHT22;4802;51.494;6.770;2022-12-07T01:14:51;4.90;99.90
9527;DHT22;4802;51.494;6.770;2022-12-07T01:17:51;6.00;99.90
9527;DHT22;4802;51.494;6.770;2022-12-07T01:21:13;6.00;99.90
9527;DHT22;4802;51.494;6.770;2022-12-07T01:24:13;6.10;99.90
9527;DHT22;4802;51.494;6.770;2022-12-07T01:27:23;6.00;99.90
9527;DHT22;4802;51.494;6.770;2022-12-07T01:37:23;5.90;99.90
9527;DHT22;4802;51.494;6.770;2022-12-07T01:40:09;7.20;99.90
9527;DHT22;4802;51.494;6.770;2022-12-07T01:42:53;5.90;99.90
9527;DHT22;4802;51.494;6.770;2022-12-07T01:46:02;5.90;99.90
9527;DHT22;4802;51.494;6.770;2022-12-07T01:48:59;5.90;99.90
9527;DHT22;4802;51.494;6.770;2022-12-07T01:52:16;5.90;99.90
9527;DHT22;4802;51.494;6.770;2022-12-07T02:08:12;6.10;40.90
9527;DHT22;4802;51.494;6.770;2022-12-07T02:10:57;5.80;99.90
9527;DHT22;4802;51.494;6.770;2022-12-07T02:13:35;5.80;99.90
9527;DHT22;4802;51.494;6.770;2022-12-07T02:16:35;5.70;99.90
9527;DHT22;4802;51.494;6.770;2022-12-07T02:19:57;5.70;99.90
9527;DHT22;4802;51.494;6.770;2022-12-07T02:23:40;6.20;99.90
9527;DHT22;4802;51.494;6.770;2022-12-07T02:26:58;6.80;99.90
9527;DHT22;4802;51.494;6.770;2022-12-07T02:29:45;5.70;99.90
9527;DHT22;4802;51.494;6.770;2022-12-07T02:32:38;5.70;99.90
9527;DHT22;4802;51.494;6.770;2022-12-07T02:35:28;5.70;99.90
9527;DHT22;4802;51.494;6.770;2022-12-07T02:38:04;5.70;99.90
9527;DHT22;4802;51.494;6.770;2022-12-07T02:40:46;5.60;99.90
9527;DHT22;4802;51.494;6.770;2022-12-07T02:43:38;5.60;99.90
9527;DHT22;4802;51.494;6.770;2022-12-07T02:46:40;5.60;99.90
9527;DHT22;4802;51.494;6.770;2022-12-07T02:49:26;5.50;99.90
9527;DHT22;4802;51.494;6.770;2022-12-07T02:51:57;5.40;99.90
9527;DHT22;4802;51.494;6.770;2022-12-07T02:54:41;6.20;1.00
9527;DHT22;4802;51.494;6.770;2022-12-07T02:57:47;5.30;1.00
9527;DHT22;4802;51.494;6.770;2022-12-07T03:00:20;5.20;1.00
9527;DHT22;4802;51.494;6.770;2022-12-07T03:02:58;5.20;99.90
9527;DHT22;4802;51.494;6.770;2022-12-07T03:06:10;5.20;1.00
9527;DHT22;4802;51.494;6.770;2022-12-07T03:08:53;5.70;99.90
9527;DHT22;4802;51.494;6.770;2022-12-07T03:11:33;5.10;99.90
9527;DHT22;4802;51.494;6.770;2022-12-07T03:14:12;5.10;1.00
9527;DHT22;4802;51.494;6.770;2022-12-07T03:16:50;5.10;1.00
9527;DHT22;4802;51.494;6.770;2022-12-07T03:19:55;5.10;1.00
9527;DHT22;4802;51.494;6.770;2022-12-07T03:22:40;4.20;99.90
9527;DHT22;4802;51.494;6.770;2022-12-07T03:25:24;5.00;99.90
9527;DHT22;4802;51.494;6.770;2022-12-07T03:28:02;5.00;99.90
9527;DHT22;4802;51.494;6.770;2022-12-07T03:30:58;4.70;99.90
9527;DHT22;4802;51.494;6.770;2022-12-07T03:33:59;4.90;1.00
9527;DHT22;4802;51.494;6.770;2022-12-07T03:40:00;4.90;99.90
9527;DHT22;4802;51.494;6.770;2022-12-07T03:42:34;4.90;52.40
9527;DHT22;4802;51.494;6.770;2022-12-07T03:45:18;4.70;99.90
9527;DHT22;4802;51.494;6.770;2022-12-07T03:48:22;5.30;99.90
9527;DHT22;4802;51.494;6.770;2022-12-07T03:51:07;5.00;1.00
9527;DHT22;4802;51.494;6.770;2022-12-07T03:54:10;5.00;99.90
9527;DHT22;4802;51.494;6.770;2022-12-07T03:57:28;5.10;99.90
9527;DHT22;4802;51.494;6.770;2022-12-07T04:08:01;5.70;99.90
9527;DHT22;4802;51.494;6.770;2022-12-07T04:10:57;5.20;63.20
9527;DHT22;4802;51.494;6.770;2022-12-07T04:27:29;5.00;99.90
9527;DHT22;4802;51.494;6.770;2022-12-07T04:30:17;5.00;99.90
9527;DHT22;4802;51.494;6.770;2022-12-07T04:33:01;4.90;99.90
9527;DHT22;4802;51.494;6.770;2022-12-07T04:35:53;4.80;99.90
9527;DHT22;4802;51.494;6.770;2022-12-07T04:38:25;4.80;99.90
9527;DHT22;4802;51.494;6.770;2022-12-07T04:40:57;4.90;99.90
9527;DHT22;4802;51.494;6.770;2022-12-07T04:46:46;4.50;1.00
9527;DHT22;4802;51.494;6.770;2022-12-07T04:49:20;4.80;99.90
9527;DHT22;4802;51.494;6.770;2022-12-07T05:25:41;4.90;1.00
9527;DHT22;4802;51.494;6.770;2022-12-07T05:28:18;5.00;1.00
9527;DHT22;4802;51.494;6.770;2022-12-07T05:30:52;4.90;99.90
9527;DHT22;4802;51.494;6.770;2022-12-07T05:33:26;5.00;99.90
9527;DHT22;4802;51.494;6.770;2022-12-07T05:35:59;5.00;99.90
9527;DHT22;4802;51.494;6.770;2022-12-07T05:38:32;5.30;99.90
9527;DHT22;4802;51.494;6.770;2022-12-07T05:41:20;5.20;99.90
9527;DHT22;4802;51.494;6.770;2022-12-07T05:44:10;4.80;99.90
9527;DHT22;4802;51.494;6.770;2022-12-07T05:47:01;5.00;99.90
9527;DHT22;4802;51.494;6.770;2022-12-07T05:49:44;5.00;99.90
9527;DHT22;4802;51.494;6.770;2022-12-07T05:52:29;5.40;99.90
9527;DHT22;4802;51.494;6.770;2022-12-07T05:55:07;5.10;48.50
9527;DHT22;4802;51.494;6.770;2022-12-07T06:02:00;5.10;1.00
9527;DHT22;4802;51.494;6.770;2022-12-07T06:04:56;5.10;1.00
9527;DHT22;4802;51.494;6.770;2022-12-07T06:08:05;5.10;1.00
9527;DHT22;4802;51.494;6.770;2022-12-07T06:10:37;5.90;1.00
9527;DHT22;4802;51.494;6.770;2022-12-07T06:13:07;5.00;1.00
9527;DHT22;4802;51.494;6.770;2022-12-07T06:15:37;5.00;1.00
9527;DHT22;4802;51.494;6.770;2022-12-07T06:18:09;5.00;1.00
9527;DHT22;4802;51.494;6.770;2022-12-07T06:20:54;5.00;1.00
9527;DHT22;4802;51.494;6.770;2022-12-07T06:23:51;5.10;1.00
9527;DHT22;4802;51.494;6.770;2022-12-07T06:26:25;5.10;1.00
9527;DHT22;4802;51.494;6.770;2022-12-07T06:28:54;5.00;1.00
9527;DHT22;4802;51.494;6.770;2022-12-07T06:31:26;4.90;1.00
9527;DHT22;4802;51.494;6.770;2022-12-07T06:34:06;5.20;1.00
9527;DHT22;4802;51.494;6.770;2022-12-07T06:36:37;5.20;1.00
9527;DHT22;4802;51.494;6.770;2022-12-07T06:39:07;5.20;1.00
9527;DHT22;4802;51.494;6.770;2022-12-07T06:41:39;5.20;1.00
9527;DHT22;4802;51.494;6.770;2022-12-07T06:44:12;6.80;1.00
9527;DHT22;4802;51.494;6.770;2022-12-07T06:46:42;5.20;1.00
9527;DHT22;4802;51.494;6.770;2022-12-07T06:49:13;5.20;1.00
9527;DHT22;4802;51.494;6.770;2022-12-07T06:51:42;5.20;1.00
9527;DHT22;4802;51.494;6.770;2022-12-07T06:54:13;5.70;99.90
9527;DHT22;4802;51.494;6.770;2022-12-07T06:56:43;5.20;99.90
9527;DHT22;4802;51.494;6.770;2022-12-07T06:59:15;5.10;99.90
9527;DHT22;4802;51.494;6.770;2022-12-07T07:01:44;5.00;99.90
9527;DHT22;4802;51.494;6.770;2022-12-07T07:04:16;3.80;99.90
9527;DHT22;4802;51.494;6.770;2022-12-07T07:06:45;7.30;99.90
9527;DHT22;4802;51.494;6.770;2022-12-07T07:09:15;5.00;99.90
9527;DHT22;4802;51.494;6.770;2022-12-07T07:11:45;5.40;99.90
9527;DHT22;4802;51.494;6.770;2022-12-07T07:14:14;4.70;99.90
9527;DHT22;4802;51.494;6.770;2022-12-07T07:16:46;5.20;99.90
9527;DHT22;4802;51.494;6.770;2022-12-07T07:19:18;4.40;99.90
9527;DHT22;4802;51.494;6.770;2022-12-07T07:21:48;5.20;99.90
9527;DHT22;4802;51.494;6.770;2022-12-07T07:24:21;5.10;99.90
9527;DHT22;4802;51.494;6.770;2022-12-07T07:26:53;5.00;99.90
9527;DHT22;4802;51.494;6.770;2022-12-07T07:29:22;5.20;99.90
9527;DHT22;4802;51.494;6.770;2022-12-07T07:31:51;5.10;99.90
9527;DHT22;4802;51.494;6.770;2022-12-07T07:34:23;4.50;99.90
9527;DHT22;4802;51.494;6.770;2022-12-07T07:36:53;5.20;99.90
9527;DHT22;4802;51.494;6.770;2022-12-07T07:39:22;5.10;99.90
9527;DHT22;4802;51.494;6.770;2022-12-07T07:41:51;4.80;99.90
9527;DHT22;4802;51.494;6.770;2022-12-07T07:44:26;5.10;99.90
9527;DHT22;4802;51.494;6.770;2022-12-07T07:47:01;5.20;99.90
9527;DHT22;4802;51.494;6.770;2022-12-07T07:49:33;5.20;99.90
9527;DHT22;4802;51.494;6.770;2022-12-07T07:52:12;4.80;98.30
9527;DHT22;4802;51.494;6.770;2022-12-07T07:54:42;5.30;90.40
9527;DHT22;4802;51.494;6.770;2022-12-07T07:57:12;5.10;87.20
9527;DHT22;4802;51.494;6.770;2022-12-07T07:59:41;5.20;84.40
9527;DHT22;4802;51.494;6.770;2022-12-07T08:02:14;5.40;48.80
9527;DHT22;4802;51.494;6.770;2022-12-07T08:04:48;5.40;16.90
9527;DHT22;4802;51.494;6.770;2022-12-07T08:07:18;5.50;1.00
9527;DHT22;4802;51.494;6.770;2022-12-07T08:09:48;5.40;1.00
9527;DHT22;4802;51.494;6.770;2022-12-07T08:12:17;4.80;1.00
9527;DHT22;4802;51.494;6.770;2022-12-07T08:14:48;5.50;1.00
9527;DHT22;4802;51.494;6.770;2022-12-07T08:17:17;5.20;1.00
9527;DHT22;4802;51.494;6.770;2022-12-07T08:19:49;5.30;1.00
9527;DHT22;4802;51.494;6.770;2022-12-07T08:22:20;5.50;1.00
9527;DHT22;4802;51.494;6.770;2022-12-07T08:24:51;5.10;1.00
9527;DHT22;4802;51.494;6.770;2022-12-07T08:27:25;5.50;1.00
9527;DHT22;4802;51.494;6.770;2022-12-07T08:29:55;6.00;1.00
9527;DHT22;4802;51.494;6.770;2022-12-07T08:32:25;4.90;1.00
9527;DHT22;4802;51.494;6.770;2022-12-07T08:34:55;5.30;1.00
9527;DHT22;4802;51.494;6.770;2022-12-07T08:37:25;5.40;1.00
9527;DHT22;4802;51.494;6.770;2022-12-07T08:39:55;5.50;1.00
9527;DHT22;4802;51.494;6.770;2022-12-07T08:42:25;5.20;1.00
9527;DHT22;4802;51.494;6.770;2022-12-07T08:49:13;5.70;1.00
9527;DHT22;4802;51.494;6.770;2022-12-07T08:51:47;5.80;1.00
9527;DHT22;4802;51.494;6.770;2022-12-07T08:54:18;5.40;1.00
9527;DHT22;4802;51.494;6.770;2022-12-07T08:56:50;5.50;1.00
9527;DHT22;4802;51.494;6.770;2022-12-07T08:59:26;5.60;1.00
9527;DHT22;4802;51.494;6.770;2022-12-07T09:01:57;5.60;1.00
9527;DHT22;4802;51.494;6.770;2022-12-07T09:04:27;5.60;1.00
9527;DHT22;4802;51.494;6.770;2022-12-07T09:06:59;5.60;1.00
9527;DHT22;4802;51.494;6.770;2022-12-07T09:09:28;6.10;1.00
9527;DHT22;4802;51.494;6.770;2022-12-07T09:11:59;5.90;1.00
9527;DHT22;4802;51.494;6.770;2022-12-07T09:14:32;6.10;1.00
9527;DHT22;4802;51.494;6.770;2022-12-07T09:17:06;6.20;1.00
9527;DHT22;4802;51.494;6.770;2022-12-07T09:19:38;6.30;1.00
9527;DHT22;4802;51.494;6.770;2022-12-07T09:22:11;6.40;1.00
9527;DHT22;4802;51.494;6.770;2022-12-07T09:24:41;6.50;1.00
9527;DHT22;4802;51.494;6.770;2022-12-07T09:27:11;6.40;1.00
9527;DHT22;4802;51.494;6.770;2022-12-07T09:29:48;6.20;1.00
9527;DHT22;4802;51.494;6.770;2022-12-07T09:32:20;6.20;1.00
9527;DHT22;4802;51.494;6.770;2022-12-07T09:34:51;6.10;1.00
9527;DHT22;4802;51.494;6.770;2022-12-07T09:37:24;6.30;1.00
9527;DHT22;4802;51.494;6.770;2022-12-07T09:39:53;5.00;1.00
9527;DHT22;4802;51.494;6.770;2022-12-07T09:42:28;6.30;1.00
9527;DHT22;4802;51.494;6.770;2022-12-07T09:44:58;6.30;1.00
9527;DHT22;4802;51.494;6.770;2022-12-07T09:47:29;6.50;1.00
9527;DHT22;4802;51.494;6.770;2022-12-07T09:50:04;6.70;1.00
9527;DHT22;4802;51.494;6.770;2022-12-07T09:52:36;6.30;1.00
9527;DHT22;4802;51.494;6.770;2022-12-07T09:55:11;6.80;1.00
9527;DHT22;4802;51.494;6.770;2022-12-07T09:57:45;6.80;1.00
9527;DHT22;4802;51.494;6.770;2022-12-07T10:00:19;7.00;1.00
9527;DHT22;4802;51.494;6.770;2022-12-07T10:02:53;7.40;1.00
9527;DHT22;4802;51.494;6.770;2022-12-07T10:05:28;7.70;99.90
9527;DHT22;4802;51.494;6.770;2022-12-07T10:08:02;7.80;99.90
9527;DHT22;4802;51.494;6.770;2022-12-07T10:10:33;7.80;99.90
9527;DHT22;4802;51.494;6.770;2022-12-07T10:13:07;7.80;99.90
9527;DHT22;4802;51.494;6.770;2022-12-07T10:15:46;7.70;99.90
9527;DHT22;4802;51.494;6.770;2022-12-07T10:21:12;8.50;99.90
9527;DHT22;4802;51.494;6.770;2022-12-07T10:26:51;7.70;99.90
9527;DHT22;4802;51.494;6.770;2022-12-07T10:29:28;7.70;99.90
9527;DHT22;4802;51.494;6.770;2022-12-07T10:32:29;7.80;99.90
9527;DHT22;4802;51.494;6.770;2022-12-07T10:35:21;7.70;99.90
9527;DHT22;4802;51.494;6.770;2022-12-07T10:37:55;7.60;99.90
9527;DHT22;4802;51.494;6.770;2022-12-07T10:40:35;7.60;99.90
9527;DHT22;4802;51.494;6.770;2022-12-07T10:43:19;7.50;99.90
9527;DHT22;4802;51.494;6.770;2022-12-07T10:46:17;7.70;99.90
9527;DHT22;4802;51.494;6.770;2022-12-07T10:49:01;7.60;99.90
9527;DHT22;4802;51.494;6.770;2022-12-07T10:51:41;7.60;99.90
9527;DHT22;4802;51.494;6.770;2022-12-07T10:54:21;7.50;99.90
9527;DHT22;4802;51.494;6.770;2022-12-07T11:00:31;7.70;99.90
9527;DHT22;4802;51.494;6.770;2022-12-07T11:06:54;7.70;99.90
9527;DHT22;4802;51.494;6.770;2022-12-07T11:10:04;7.30;99.90
9527;DHT22;4802;51.494;6.770;2022-12-07T11:13:23;7.20;99.90
9527;DHT22;4802;51.494;6.770;2022-12-07T11:16:21;7.30;99.90
9527;DHT22;4802;51.494;6.770;2022-12-07T11:19:28;7.10;99.90
9527;DHT22;4802;51.494;6.770;2022-12-07T11:22:02;7.60;99.90
9527;DHT22;4802;51.494;6.770;2022-12-07T11:24:43;7.30;99.90
9527;DHT22;4802;51.494;6.770;2022-12-07T11:27:26;7.30;99.90
9527;DHT22;4802;51.494;6.770;2022-12-07T11:30:14;7.20;99.90
9527;DHT22;4802;51.494;6.770;2022-12-07T11:32:57;7.60;99.90
9527;DHT22;4802;51.494;6.770;2022-12-07T11:35:42;7.90;99.90
9527;DHT22;4802;51.494;6.770;2022-12-07T11:38:16;8.40;99.90
9527;DHT22;4802;51.494;6.770;2022-12-07T11:41:00;8.00;99.90
9527;DHT22;4802;51.494;6.770;2022-12-07T11:43:52;7.90;99.90
9527;DHT22;4802;51.494;6.770;2022-12-07T11:46:24;7.90;99.90
9527;DHT22;4802;51.494;6.770;2022-12-07T11:49:03;8.10;99.90
9527;DHT22;4802;51.494;6.770;2022-12-07T11:51:38;7.80;99.90
9527;DHT22;4802;51.494;6.770;2022-12-07T11:54:14;7.70;99.90
9527;DHT22;4802;51.494;6.770;2022-12-07T11:56:51;7.70;99.90
9527;DHT22;4802;51.494;6.770;2022-12-07T11:59:25;7.70;99.90
9527;DHT22;4802;51.494;6.770;2022-12-07T12:02:03;7.50;99.90
9527;DHT22;4802;51.494;6.770;2022-12-07T12:07:57;7.40;99.90
9527;DHT22;4802;51.494;6.770;2022-12-07T12:11:03;7.50;99.90
9527;DHT22;4802;51.494;6.770;2022-12-07T12:17:38;8.20;99.90
9527;DHT22;4802;51.494;6.770;2022-12-07T12:20:20;7.60;99.90
9527;DHT22;4802;51.494;6.770;2022-12-07T12:23:07;7.10;99.90
9527;DHT22;4802;51.494;6.770;2022-12-07T12:25:42;7.30;99.90
9527;DHT22;4802;51.494;6.770;2022-12-07T12:28:29;7.80;99.90
9527;DHT22;4802;51.494;6.770;2022-12-07T12:31:12;7.40;99.90
9527;DHT22;4802;51.494;6.770;2022-12-07T12:34:00;7.10;99.90
9527;DHT22;4802;51.494;6.770;2022-12-07T12:36:46;7.30;99.90
9527;DHT22;4802;51.494;6.770;2022-12-07T12:39:32;7.00;99.90
9527;DHT22;4802;51.494;6.770;2022-12-07T12:42:42;7.40;99.90
9527;DHT22;4802;51.494;6.770;2022-12-07T12:45:33;7.40;99.90
9527;DHT22;4802;51.494;6.770;2022-12-07T12:48:02;7.30;99.90
9527;DHT22;4802;51.494;6.770;2022-12-07T12:50:33;7.10;1.00
9527;DHT22;4802;51.494;6.770;2022-12-07T12:53:25;7.10;99.90
9527;DHT22;4802;51.494;6.770;2022-12-07T12:56:29;7.40;1.00
9527;DHT22;4802;51.494;6.770;2022-12-07T12:59:42;7.10;1.00
9527;DHT22;4802;51.494;6.770;2022-12-07T13:02:26;7.10;1.00
9527;DHT22;4802;51.494;6.770;2022-12-07T13:05:19;7.10;1.00
9527;DHT22;4802;51.494;6.770;2022-12-07T13:08:19;7.30;1.00
9527;DHT22;4802;51.494;6.770;2022-12-07T13:11:18;7.30;99.90
9527;DHT22;4802;51.494;6.770;2022-12-07T13:18:03;7.60;1.00
9527;DHT22;4802;51.494;6.770;2022-12-07T13:20:55;7.20;99.90
9527;DHT22;4802;51.494;6.770;2022-12-07T13:23:58;7.20;1.00
9527;DHT22;4802;51.494;6.770;2022-12-07T13:26:36;7.10;1.00
9527;DHT22;4802;51.494;6.770;2022-12-07T13:29:23;7.10;1.00
9527;DHT22;4802;51.494;6.770;2022-12-07T13:32:03;7.00;1.00
9527;DHT22;4802;51.494;6.770;2022-12-07T13:34:53;7.00;1.00
9527;DHT22;4802;51.494;6.770;2022-12-07T13:37:46;7.00;1.00
9527;DHT22;4802;51.494;6.770;2022-12-07T13:40:20;7.00;1.00
9527;DHT22;4802;51.494;6.770;2022-12-07T13:43:17;7.00;1.00
9527;DHT22;4802;51.494;6.770;2022-12-07T13:45:56;7.00;1.00
9527;DHT22;4802;51.494;6.770;2022-12-07T13:48:50;6.90;1.00
9527;DHT22;4802;51.494;6.770;2022-12-07T13:51:28;7.20;1.00
9527;DHT22;4802;51.494;6.770;2022-12-07T13:54:46;6.90;1.00
9527;DHT22;4802;51.494;6.770;2022-12-07T13:57:50;5.80;1.00
9527;DHT22;4802;51.494;6.770;2022-12-07T14:00:34;6.90;1.00
9527;DHT22;4802;51.494;6.770;2022-12-07T14:03:28;6.70;1.00
9527;DHT22;4802;51.494;6.770;2022-12-07T14:06:15;6.90;1.00
9527;DHT22;4802;51.494;6.770;2022-12-07T14:09:20;6.70;1.00
9527;DHT22;4802;51.494;6.770;2022-12-07T14:11:59;6.70;1.00
9527;DHT22;4802;51.494;6.770;2022-12-07T14:14:46;6.90;1.00
9527;DHT22;4802;51.494;6.770;2022-12-07T14:17:24;6.70;1.00
9527;DHT22;4802;51.494;6.770;2022-12-07T14:20:01;6.80;1.00
9527;DHT22;4802;51.494;6.770;2022-12-07T14:22:39;6.80;1.00
9527;DHT22;4802;51.494;6.770;2022-12-07T14:28:51;6.70;1.00
9527;DHT22;4802;51.494;6.770;2022-12-07T14:31:24;6.80;1.00
9527;DHT22;4802;51.494;6.770;2022-12-07T14:34:01;6.70;1.00
9527;DHT22;4802;51.494;6.770;2022-12-07T14:36:34;6.50;1.00
9527;DHT22;4802;51.494;6.770;2022-12-07T14:39:11;6.60;1.00
9527;DHT22;4802;51.494;6.770;2022-12-07T14:45:23;6.50;1.00
9527;DHT22;4802;51.494;6.770;2022-12-07T14:47:58;6.40;1.00
9527;DHT22;4802;51.494;6.770;2022-12-07T14:51:15;6.40;1.00
9527;DHT22;4802;51.494;6.770;2022-12-07T14:54:11;6.40;1.00
9527;DHT22;4802;51.494;6.770;2022-12-07T14:56:43;6.60;1.00
9527;DHT22;4802;51.494;6.770;2022-12-07T14:59:19;6.40;1.00
9527;DHT22;4802;51.494;6.770;2022-12-07T15:05:38;6.30;1.00
9527;DHT22;4802;51.494;6.770;2022-12-07T15:08:22;6.30;1.00
9527;DHT22;4802;51.494;6.770;2022-12-07T15:10:53;6.40;1.00
9527;DHT22;4802;51.494;6.770;2022-12-07T15:13:28;5.80;1.00
9527;DHT22;4802;51.494;6.770;2022-12-07T15:16:19;6.20;1.00
9527;DHT22;4802;51.494;6.770;2022-12-07T15:19:18;5.80;1.00
9527;DHT22;4802;51.494;6.770;2022-12-07T15:22:09;6.10;1.00
9527;DHT22;4802;51.494;6.770;2022-12-07T15:24:51;6.30;1.00
9527;DHT22;4802;51.494;6.770;2022-12-07T15:27:34;6.10;1.00
9527;DHT22;4802;51.494;6.770;2022-12-07T15:30:18;6.10;1.00
9527;DHT22;4802;51.494;6.770;2022-12-07T15:32:53;6.00;1.00
9527;DHT22;4802;51.494;6.770;2022-12-07T15:35:39;6.10;1.00
9527;DHT22;4802;51.494;6.770;2022-12-07T15:38:26;5.60;1.00
9527;DHT22;4802;51.494;6.770;2022-12-07T15:41:11;6.10;1.00
9527;DHT22;4802;51.494;6.770;2022-12-07T15:43:46;6.00;1.00
9527;DHT22;4802;51.494;6.770;2022-12-07T15:46:37;5.90;1.00
9527;DHT22;4802;51.494;6.770;2022-12-07T15:49:23;6.40;1.00
9527;DHT22;4802;51.494;6.770;2022-12-07T15:52:12;6.00;1.00
9527;DHT22;4802;51.494;6.770;2022-12-07T15:54:49;6.10;1.00
9527;DHT22;4802;51.494;6.770;2022-12-07T15:57:33;6.00;1.00
9527;DHT22;4802;51.494;6.770;2022-12-07T16:00:07;6.40;1.00
9527;DHT22;4802;51.494;6.770;2022-12-07T16:02:41;6.00;1.00
9527;DHT22;4802;51.494;6.770;2022-12-07T16:05:40;6.00;1.00
9527;DHT22;4802;51.494;6.770;2022-12-07T16:08:29;6.00;1.00
9527;DHT22;4802;51.494;6.770;2022-12-07T16:14:15;5.90;1.00
9527;DHT22;4802;51.494;6.770;2022-12-07T16:16:59;6.00;1.00
9527;DHT22;4802;51.494;6.770;2022-12-07T16:19:44;6.00;1.00
9527;DHT22;4802;51.494;6.770;2022-12-07T16:22:29;6.10;1.00
9527;DHT22;4802;51.494;6.770;2022-12-07T16:25:05;6.10;1.00
9527;DHT22;4802;51.494;6.770;2022-12-07T16:27:51;6.10;1.00
9527;DHT22;4802;51.494;6.770;2022-12-07T16:33:42;6.10;1.00
9527;DHT22;4802;51.494;6.770;2022-12-07T16:36:16;6.10;1.00
9527;DHT22;4802;51.494;6.770;2022-12-07T16:39:12;6.30;99.90
9527;DHT22;4802;51.494;6.770;2022-12-07T16:42:23;6.30;99.90
9527;DHT22;4802;51.494;6.770;2022-12-07T16:45:19;6.10;99.90
9527;DHT22;4802;51.494;6.770;2022-12-07T16:55:25;6.20;1.00
9527;DHT22;4802;51.494;6.770;2022-12-07T16:58:30;6.20;1.00
9527;DHT22;4802;51.494;6.770;2022-12-07T17:01:32;6.40;1.00
9527;DHT22;4802;51.494;6.770;2022-12-07T17:04:35;6.00;1.00
9527;DHT22;4802;51.494;6.770;2022-12-07T17:07:38;6.10;1.00
9527;DHT22;4802;51.494;6.770;2022-12-07T17:20:47;6.10;1.00
9527;DHT22;4802;51.494;6.770;2022-12-07T17:23:49;6.00;1.00
9527;DHT22;4802;51.494;6.770;2022-12-07T17:26:51;5.90;1.00
9527;DHT22;4802;51.494;6.770;2022-12-07T17:29:49;6.10;1.00
9527;DHT22;4802;51.494;6.770;2022-12-07T17:32:29;6.00;1.00
9527;DHT22;4802;51.494;6.770;2022-12-07T18:26:45;5.90;99.90
9527;DHT22;4802;51.494;6.770;2022-12-07T18:29:25;5.70;99.90
9527;DHT22;4802;51.494;6.770;2022-12-07T18:32:03;6.60;99.90
9527;DHT22;4802;51.494;6.770;2022-12-07T18:34:50;6.60;99.90
9527;DHT22;4802;51.494;6.770;2022-12-07T18:37:46;5.40;99.90
9527;DHT22;4802;51.494;6.770;2022-12-07T18:43:55;6.60;99.90
9527;DHT22;4802;51.494;6.770;2022-12-07T18:46:36;6.00;99.90
9527;DHT22;4802;51.494;6.770;2022-12-07T18:49:32;6.00;99.90
9527;DHT22;4802;51.494;6.770;2022-12-07T18:52:32;6.70;99.90
9527;DHT22;4802;51.494;6.770;2022-12-07T18:55:18;6.30;99.90
9527;DHT22;4802;51.494;6.770;2022-12-07T18:58:17;6.10;99.90
9527;DHT22;4802;51.494;6.770;2022-12-07T19:11:30;6.20;99.90
9527;DHT22;4802;51.494;6.770;2022-12-07T19:14:54;4.50;99.90
9527;DHT22;4802;51.494;6.770;2022-12-07T19:17:59;5.80;99.90
9527;DHT22;4802;51.494;6.770;2022-12-07T19:20:55;6.40;99.90
9527;DHT22;4802;51.494;6.770;2022-12-07T19:23:52;6.90;99.90
9527;DHT22;4802;51.494;6.770;2022-12-07T19:26:50;5.90;99.90
9527;DHT22;4802;51.494;6.770;2022-12-07T19:29:43;5.80;99.90
9527;DHT22;4802;51.494;6.770;2022-12-07T19:32:38;6.30;99.90
9527;DHT22;4802;51.494;6.770;2022-12-07T19:35:24;5.90;99.90
9527;DHT22;4802;51.494;6.770;2022-12-07T19:37:57;5.90;99.90
9527;DHT22;4802;51.494;6.770;2022-12-07T19:40:31;5.50;99.90
9527;DHT22;4802;51.494;6.770;2022-12-07T19:43:36;5.90;99.90
9527;DHT22;4802;51.494;6.770;2022-12-07T19:46:10;6.10;99.90
9527;DHT22;4802;51.494;6.770;2022-12-07T19:48:48;5.90;99.90
9527;DHT22;4802;51.494;6.770;2022-12-07T19:51:33;5.60;99.90
9527;DHT22;4802;51.494;6.770;2022-12-07T19:54:20;5.80;99.90
9527;DHT22;4802;51.494;6.770;2022-12-07T19:57:13;5.70;99.90
9527;DHT22;4802;51.494;6.770;2022-12-07T20:07:18;5.70;1.00
9527;DHT22;4802;51.494;6.770;2022-12-07T20:10:17;6.20;1.00
9527;DHT22;4802;51.494;6.770;2022-12-07T20:13:04;5.70;1.00
9527;DHT22;4802;51.494;6.770;2022-12-07T20:15:54;5.70;1.00
9527;DHT22;4802;51.494;6.770;2022-12-07T20:18:46;4.60;1.00
9527;DHT22;4802;51.494;6.770;2022-12-07T20:21:46;6.30;1.00
9527;DHT22;4802;51.494;6.770;2022-12-07T20:24:54;6.20;99.90
9527;DHT22;4802;51.494;6.770;2022-12-07T20:27:52;6.10;99.90
9527;DHT22;4802;51.494;6.770;2022-12-07T20:30:53;5.50;1.00
9527;DHT22;4802;51.494;6.770;2022-12-07T20:34:02;5.70;1.00
9527;DHT22;4802;51.494;6.770;2022-12-07T20:37:15;5.40;1.00
9527;DHT22;4802;51.494;6.770;2022-12-07T20:40:12;4.90;1.00
9527;DHT22;4802;51.494;6.770;2022-12-07T20:48:25;5.30;1.00
9527;DHT22;4802;51.494;6.770;2022-12-07T20:51:16;6.10;1.00
9527;DHT22;4802;51.494;6.770;2022-12-07T20:54:05;5.70;1.00
9527;DHT22;4802;51.494;6.770;2022-12-07T21:00:47;5.40;1.00
9527;DHT22;4802;51.494;6.770;2022-12-07T21:03:47;6.40;1.00
9527;DHT22;4802;51.494;6.770;2022-12-07T21:06:47;6.00;1.00
9527;DHT22;4802;51.494;6.770;2022-12-07T21:10:20;5.70;1.00
9527;DHT22;4802;51.494;6.770;2022-12-07T21:13:24;6.00;1.00
9527;DHT22;4802;51.494;6.770;2022-12-07T21:16:40;6.10;1.00
9527;DHT22;4802;51.494;6.770;2022-12-07T21:19:51;5.10;1.00
9527;DHT22;4802;51.494;6.770;2022-12-07T21:25:33;5.30;99.90
9527;DHT22;4802;51.494;6.770;2022-12-07T21:28:05;5.70;1.00
9527;DHT22;4802;51.494;6.770;2022-12-07T21:30:42;4.90;1.00
9527;DHT22;4802;51.494;6.770;2022-12-07T21:34:01;4.70;1.00
9527;DHT22;4802;51.494;6.770;2022-12-07T21:36:40;5.20;1.00
9527;DHT22;4802;51.494;6.770;2022-12-07T21:39:32;6.20;1.00
9527;DHT22;4802;51.494;6.770;2022-12-07T21:42:20;5.20;96.40
9527;DHT22;4802;51.494;6.770;2022-12-07T21:45:13;5.10;99.90
9527;DHT22;4802;51.494;6.770;2022-12-07T21:48:12;5.50;1.00
9527;DHT22;4802;51.494;6.770;2022-12-07T21:51:19;4.70;1.00
9527;DHT22;4802;51.494;6.770;2022-12-07T21:54:05;6.00;1.00
9527;DHT22;4802;51.494;6.770;2022-12-07T21:59:54;5.30;1.00
9527;DHT22;4802;51.494;6.770;2022-12-07T22:02:55;5.30;1.00
9527;DHT22;4802;51.494;6.770;2022-12-07T22:06:02;5.30;31.40
9527;DHT22;4802;51.494;6.770;2022-12-07T22:09:05;5.30;12.50
9527;DHT22;4802;51.494;6.770;2022-12-07T22:15:29;5.40;1.00
9527;DHT22;4802;51.494;6.770;2022-12-07T22:18:29;5.40;1.00
9527;DHT22;4802;51.494;6.770;2022-12-07T22:21:37;5.60;1.00
9527;DHT22;4802;51.494;6.770;2022-12-07T22:31:20;6.30;1.00
9527;DHT22;4802;51.494;6.770;2022-12-07T22:34:24;5.40;1.00
9527;DHT22;4802;51.494;6.770;2022-12-07T22:37:00;5.40;1.00
9527;DHT22;4802;51.494;6.770;2022-12-07T22:40:00;6.50;1.00
9527;DHT22;4802;51.494;6.770;2022-12-07T22:42:49;5.40;1.00
9527;DHT22;4802;51.494;6.770;2022-12-07T22:45:39;4.90;1.00
9527;DHT22;4802;51.494;6.770;2022-12-07T22:52:35;5.50;1.00
9527;DHT22;4802;51.494;6.770;2022-12-07T22:55:24;5.90;1.00
9527;DHT22;4802;51.494;6.770;2022-12-07T22:58:31;5.40;1.00
9527;DHT22;4802;51.494;6.770;2022-12-07T23:01:06;5.80;1.00
9527;DHT22;4802;51.494;6.770;2022-12-07T23:03:53;4.80;99.90
9527;DHT22;4802;51.494;6.770;2022-12-07T23:06:26;5.20;99.90
9527;DHT22;4802;51.494;6.770;2022-12-07T23:09:41;5.00;99.90
9527;DHT22;4802;51.494;6.770;2022-12-07T23:13:16;4.90;99.90
9527;DHT22;4802;51.494;6.770;2022-12-07T23:20:10;4.90;99.90
9527;DHT22;4802;51.494;6.770;2022-12-07T23:32:21;4.60;99.90
9527;DHT22;4802;51.494;6.770;2022-12-07T23:35:18;5.10;99.90